sensor_id;sensor_type;location;lat;lon;timestamp;pressure;altitude;pressure_sealevel;temperature;humidity
8416;BME280;4245;42.120;24.732;2022-08-06T00:00:12;98984.16;;;26.14;56.58
8416;BME280;4245;42.120;24.732;2022-08-06T00:02:39;98981.47;;;26.07;56.95
8416;BME280;4245;42.120;24.732;2022-08-06T00:05:07;98986.50;;;26.04;57.33
8416;BME280;4245;42.120;24.732;2022-08-06T00:07:34;98988.38;;;26.03;57.66
8416;BME280;4245;42.120;24.732;2022-08-06T00:10:01;98989.88;;;25.86;57.77
8416;BME280;4245;42.120;24.732;2022-08-06T00:12:29;98991.56;;;25.80;57.63
8416;BME280;4245;42.120;24.732;2022-08-06T00:14:58;98980.28;;;25.64;57.70
8416;BME280;4245;42.120;24.732;2022-08-06T00:17:26;98983.22;;;25.62;58.22
8416;BME280;4245;42.120;24.732;2022-08-06T00:19:53;98979.84;;;25.53;58.61
8416;BME280;4245;42.120;24.732;2022-08-06T00:22:20;98984.66;;;25.51;58.73
8416;BME280;4245;42.120;24.732;2022-08-06T00:24:47;98977.56;;;25.44;58.85
8416;BME280;4245;42.120;24.732;2022-08-06T00:27:14;98983.19;;;25.42;59.05
8416;BME280;4245;42.120;24.732;2022-08-06T00:29:41;98980.06;;;25.39;59.26
8416;BME280;4245;42.120;24.732;2022-08-06T00:32:09;98981.31;;;25.30;59.58
8416;BME280;4245;42.120;24.732;2022-08-06T00:34:36;98985.06;;;25.42;59.11
8416;BME280;4245;42.120;24.732;2022-08-06T00:37:03;98988.63;;;25.42;59.65
8416;BME280;4245;42.120;24.732;2022-08-06T00:39:30;98984.88;;;25.43;59.41
8416;BME280;4245;42.120;24.732;2022-08-06T00:41:57;98978.63;;;25.56;59.36
8416;BME280;4245;42.120;24.732;2022-08-06T00:44:24;98989.28;;;25.58;59.13
8416;BME280;4245;42.120;24.732;2022-08-06T00:46:51;98992.41;;;25.61;59.05
8416;BME280;4245;42.120;24.732;2022-08-06T00:49:20;98981.34;;;25.63;58.79
8416;BME280;4245;42.120;24.732;2022-08-06T00:51:47;98986.97;;;25.61;58.47
8416;BME280;4245;42.120;24.732;2022-08-06T00:54:14;98984.91;;;25.63;57.97
8416;BME280;4245;42.120;24.732;2022-08-06T00:56:41;98984.88;;;25.57;58.20
8416;BME280;4245;42.120;24.732;2022-08-06T00:59:08;98986.16;;;25.41;58.59
8416;BME280;4245;42.120;24.732;2022-08-06T01:01:35;98983.41;;;25.21;59.63
8416;BME280;4245;42.120;24.732;2022-08-06T01:04:02;98985.94;;;25.16;59.96
8416;BME280;4245;42.120;24.732;2022-08-06T01:06:31;98983.41;;;25.28;59.00
8416;BME280;4245;42.120;24.732;2022-08-06T01:08:58;98986.34;;;25.06;60.04
8416;BME280;4245;42.120;24.732;2022-08-06T01:11:25;98982.31;;;24.89;60.64
8416;BME280;4245;42.120;24.732;2022-08-06T01:13:52;98988.13;;;24.80;61.19
8416;BME280;4245;42.120;24.732;2022-08-06T01:16:23;98989.16;;;24.79;61.63
8416;BME280;4245;42.120;24.732;2022-08-06T01:18:57;98979.22;;;24.92;60.36
8416;BME280;4245;42.120;24.732;2022-08-06T01:21:42;98979.34;;;24.78;61.14
8416;BME280;4245;42.120;24.732;2022-08-06T01:24:33;98969.28;;;24.58;62.74
8416;BME280;4245;42.120;24.732;2022-08-06T01:27:29;98976.16;;;24.61;62.55
8416;BME280;4245;42.120;24.732;2022-08-06T01:30:03;98979.31;;;24.71;62.21
8416;BME280;4245;42.120;24.732;2022-08-06T01:32:35;98975.78;;;24.84;61.74
8416;BME280;4245;42.120;24.732;2022-08-06T01:35:06;98976.22;;;24.81;62.05
8416;BME280;4245;42.120;24.732;2022-08-06T01:37:39;98970.00;;;24.87;61.97
8416;BME280;4245;42.120;24.732;2022-08-06T01:40:21;98971.41;;;24.76;62.06
8416;BME280;4245;42.120;24.732;2022-08-06T01:42:51;98967.00;;;24.75;62.33
8416;BME280;4245;42.120;24.732;2022-08-06T01:45:23;98978.06;;;24.67;62.68
8416;BME280;4245;42.120;24.732;2022-08-06T01:47:53;98974.47;;;24.60;63.24
8416;BME280;4245;42.120;24.732;2022-08-06T01:50:27;98977.66;;;24.63;63.67
8416;BME280;4245;42.120;24.732;2022-08-06T01:52:55;98981.38;;;24.56;64.02
8416;BME280;4245;42.120;24.732;2022-08-06T01:55:25;98981.38;;;24.56;64.33
8416;BME280;4245;42.120;24.732;2022-08-06T01:57:57;98975.94;;;24.56;63.94
8416;BME280;4245;42.120;24.732;2022-08-06T02:00:26;98978.22;;;24.52;64.33
8416;BME280;4245;42.120;24.732;2022-08-06T02:02:54;98971.97;;;24.52;64.81
8416;BME280;4245;42.120;24.732;2022-08-06T02:05:23;98974.88;;;24.50;64.85
8416;BME280;4245;42.120;24.732;2022-08-06T02:07:52;98972.78;;;24.46;65.06
8416;BME280;4245;42.120;24.732;2022-08-06T02:10:22;98975.91;;;24.43;65.76
8416;BME280;4245;42.120;24.732;2022-08-06T02:12:50;98979.00;;;24.33;66.33
8416;BME280;4245;42.120;24.732;2022-08-06T02:15:22;98972.31;;;24.36;66.46
8416;BME280;4245;42.120;24.732;2022-08-06T02:17:51;98971.84;;;24.25;67.29
8416;BME280;4245;42.120;24.732;2022-08-06T02:20:23;98968.19;;;24.05;68.56
8416;BME280;4245;42.120;24.732;2022-08-06T02:22:52;98973.16;;;23.95;69.44
8416;BME280;4245;42.120;24.732;2022-08-06T02:25:20;98975.16;;;23.80;70.71
8416;BME280;4245;42.120;24.732;2022-08-06T02:27:50;98964.69;;;23.77;71.07
8416;BME280;4245;42.120;24.732;2022-08-06T02:30:20;98965.94;;;23.74;71.21
8416;BME280;4245;42.120;24.732;2022-08-06T02:32:48;98964.91;;;23.75;71.40
8416;BME280;4245;42.120;24.732;2022-08-06T02:35:15;98967.59;;;23.75;71.21
8416;BME280;4245;42.120;24.732;2022-08-06T02:37:46;98967.19;;;23.72;71.88
8416;BME280;4245;42.120;24.732;2022-08-06T02:40:20;98966.34;;;23.78;71.62
8416;BME280;4245;42.120;24.732;2022-08-06T02:42:55;98963.94;;;23.90;71.08
8416;BME280;4245;42.120;24.732;2022-08-06T02:45:30;98964.84;;;24.03;70.59
8416;BME280;4245;42.120;24.732;2022-08-06T02:48:04;98964.06;;;24.16;69.68
8416;BME280;4245;42.120;24.732;2022-08-06T02:50:37;98970.81;;;24.27;69.17
8416;BME280;4245;42.120;24.732;2022-08-06T02:53:07;98952.03;;;24.32;69.18
8416;BME280;4245;42.120;24.732;2022-08-06T02:55:37;98965.03;;;24.43;68.09
8416;BME280;4245;42.120;24.732;2022-08-06T02:58:10;98956.91;;;24.43;68.02
8416;BME280;4245;42.120;24.732;2022-08-06T03:00:41;98961.44;;;24.36;68.03
8416;BME280;4245;42.120;24.732;2022-08-06T03:03:09;98957.09;;;24.35;67.70
8416;BME280;4245;42.120;24.732;2022-08-06T03:05:37;98963.56;;;24.34;68.03
8416;BME280;4245;42.120;24.732;2022-08-06T03:08:07;98957.94;;;24.42;67.47
8416;BME280;4245;42.120;24.732;2022-08-06T03:10:36;98965.28;;;24.48;67.21
8416;BME280;4245;42.120;24.732;2022-08-06T03:13:04;98959.84;;;24.48;67.49
8416;BME280;4245;42.120;24.732;2022-08-06T03:15:33;98970.94;;;24.53;66.74
8416;BME280;4245;42.120;24.732;2022-08-06T03:18:04;98965.09;;;24.62;66.21
8416;BME280;4245;42.120;24.732;2022-08-06T03:20:33;98974.06;;;24.56;65.77
8416;BME280;4245;42.120;24.732;2022-08-06T03:23:03;98971.34;;;24.56;66.09
8416;BME280;4245;42.120;24.732;2022-08-06T03:25:32;98974.94;;;24.63;66.21
8416;BME280;4245;42.120;24.732;2022-08-06T03:28:00;98978.72;;;24.76;65.33
8416;BME280;4245;42.120;24.732;2022-08-06T03:30:28;98978.31;;;24.85;64.91
8416;BME280;4245;42.120;24.732;2022-08-06T03:32:57;98974.59;;;24.99;63.93
8416;BME280;4245;42.120;24.732;2022-08-06T03:35:26;98979.22;;;24.92;64.40
8416;BME280;4245;42.120;24.732;2022-08-06T03:37:56;98975.84;;;24.90;63.76
8416;BME280;4245;42.120;24.732;2022-08-06T03:40:23;98977.66;;;24.63;64.53
8416;BME280;4245;42.120;24.732;2022-08-06T03:42:51;98978.50;;;24.64;65.26
8416;BME280;4245;42.120;24.732;2022-08-06T03:45:19;98986.44;;;24.72;64.76
8416;BME280;4245;42.120;24.732;2022-08-06T03:47:51;98979.72;;;24.61;65.63
8416;BME280;4245;42.120;24.732;2022-08-06T03:50:21;98979.50;;;24.56;66.02
8416;BME280;4245;42.120;24.732;2022-08-06T03:52:54;98979.47;;;24.50;66.52
8416;BME280;4245;42.120;24.732;2022-08-06T03:55:26;98980.88;;;24.33;67.12
8416;BME280;4245;42.120;24.732;2022-08-06T03:57:57;98981.06;;;24.31;67.78
8416;BME280;4245;42.120;24.732;2022-08-06T04:00:29;98982.19;;;24.50;66.88
8416;BME280;4245;42.120;24.732;2022-08-06T04:02:58;98984.84;;;24.37;67.15
8416;BME280;4245;42.120;24.732;2022-08-06T04:05:29;98983.28;;;24.14;68.30
8416;BME280;4245;42.120;24.732;2022-08-06T04:08:01;98979.53;;;24.15;68.32
8416;BME280;4245;42.120;24.732;2022-08-06T04:10:33;98981.91;;;24.25;67.92
8416;BME280;4245;42.120;24.732;2022-08-06T04:13:04;98974.78;;;24.24;68.11
8416;BME280;4245;42.120;24.732;2022-08-06T04:15:32;98980.41;;;24.22;68.11
8416;BME280;4245;42.120;24.732;2022-08-06T04:17:59;98979.34;;;24.17;68.62
8416;BME280;4245;42.120;24.732;2022-08-06T04:20:27;98972.19;;;24.09;68.84
8416;BME280;4245;42.120;24.732;2022-08-06T04:22:58;98989.91;;;24.05;69.35
8416;BME280;4245;42.120;24.732;2022-08-06T04:25:27;98994.22;;;24.28;68.18
8416;BME280;4245;42.120;24.732;2022-08-06T04:27:55;98983.59;;;24.33;68.37
8416;BME280;4245;42.120;24.732;2022-08-06T04:30:24;98985.03;;;24.35;67.43
8416;BME280;4245;42.120;24.732;2022-08-06T04:32:53;98990.69;;;24.34;67.59
8416;BME280;4245;42.120;24.732;2022-08-06T04:35:21;98992.22;;;24.56;66.28
8416;BME280;4245;42.120;24.732;2022-08-06T04:37:48;98987.69;;;24.69;64.62
8416;BME280;4245;42.120;24.732;2022-08-06T04:40:18;98980.94;;;24.52;65.30
8416;BME280;4245;42.120;24.732;2022-08-06T04:42:45;98983.22;;;24.42;66.51
8416;BME280;4245;42.120;24.732;2022-08-06T04:45:13;98984.84;;;24.37;66.87
8416;BME280;4245;42.120;24.732;2022-08-06T04:47:40;98990.75;;;24.12;67.98
8416;BME280;4245;42.120;24.732;2022-08-06T04:50:09;98988.41;;;24.03;68.68
8416;BME280;4245;42.120;24.732;2022-08-06T04:52:36;98985.59;;;24.17;68.04
8416;BME280;4245;42.120;24.732;2022-08-06T04:55:05;98989.31;;;24.10;68.48
8416;BME280;4245;42.120;24.732;2022-08-06T04:57:33;98996.00;;;24.14;68.10
8416;BME280;4245;42.120;24.732;2022-08-06T05:00:00;98993.25;;;24.07;68.99
8416;BME280;4245;42.120;24.732;2022-08-06T05:02:27;98994.91;;;24.08;68.43
8416;BME280;4245;42.120;24.732;2022-08-06T05:04:56;98988.59;;;24.01;68.97
8416;BME280;4245;42.120;24.732;2022-08-06T05:07:26;99003.38;;;24.27;68.75
8416;BME280;4245;42.120;24.732;2022-08-06T05:09:54;99004.66;;;24.78;66.49
8416;BME280;4245;42.120;24.732;2022-08-06T05:12:25;99002.22;;;25.09;64.74
8416;BME280;4245;42.120;24.732;2022-08-06T05:15:02;99001.59;;;25.34;63.68
8416;BME280;4245;42.120;24.732;2022-08-06T05:17:35;99004.16;;;25.68;62.21
8416;BME280;4245;42.120;24.732;2022-08-06T05:20:18;99009.53;;;26.08;60.87
8416;BME280;4245;42.120;24.732;2022-08-06T05:22:49;99018.44;;;26.48;58.76
8416;BME280;4245;42.120;24.732;2022-08-06T05:25:19;99016.63;;;26.73;57.79
8416;BME280;4245;42.120;24.732;2022-08-06T05:27:46;99015.16;;;26.77;56.83
8416;BME280;4245;42.120;24.732;2022-08-06T05:30:15;99002.00;;;26.67;57.52
8416;BME280;4245;42.120;24.732;2022-08-06T05:32:42;99010.09;;;26.80;57.74
8416;BME280;4245;42.120;24.732;2022-08-06T05:35:10;99008.31;;;27.06;56.12
8416;BME280;4245;42.120;24.732;2022-08-06T05:37:37;99005.50;;;27.12;55.97
8416;BME280;4245;42.120;24.732;2022-08-06T05:40:05;99011.00;;;27.37;55.36
8416;BME280;4245;42.120;24.732;2022-08-06T05:42:33;99014.81;;;27.61;54.53
8416;BME280;4245;42.120;24.732;2022-08-06T05:45:00;99010.69;;;27.77;52.65
8416;BME280;4245;42.120;24.732;2022-08-06T05:47:33;99010.16;;;27.86;51.79
8416;BME280;4245;42.120;24.732;2022-08-06T05:50:06;99011.69;;;28.00;51.69
8416;BME280;4245;42.120;24.732;2022-08-06T05:52:37;99010.22;;;28.23;49.99
8416;BME280;4245;42.120;24.732;2022-08-06T05:55:13;99010.31;;;28.34;50.03
8416;BME280;4245;42.120;24.732;2022-08-06T05:57:49;99009.00;;;28.55;49.03
8416;BME280;4245;42.120;24.732;2022-08-06T06:00:19;99008.91;;;28.62;48.77
8416;BME280;4245;42.120;24.732;2022-08-06T06:02:51;99009.88;;;28.67;48.63
8416;BME280;4245;42.120;24.732;2022-08-06T06:05:19;99007.25;;;28.61;49.13
8416;BME280;4245;42.120;24.732;2022-08-06T06:07:47;99007.94;;;28.74;48.53
8416;BME280;4245;42.120;24.732;2022-08-06T06:10:15;99009.66;;;28.87;48.39
8416;BME280;4245;42.120;24.732;2022-08-06T06:12:43;99011.69;;;28.91;48.81
8416;BME280;4245;42.120;24.732;2022-08-06T06:15:12;99006.00;;;28.93;48.12
8416;BME280;4245;42.120;24.732;2022-08-06T06:17:51;99006.81;;;29.23;47.81
8416;BME280;4245;42.120;24.732;2022-08-06T06:20:29;98999.03;;;29.39;47.70
8416;BME280;4245;42.120;24.732;2022-08-06T06:23:02;99005.34;;;29.74;47.15
8416;BME280;4245;42.120;24.732;2022-08-06T06:25:36;99004.53;;;29.62;47.35
8416;BME280;4245;42.120;24.732;2022-08-06T06:28:09;99008.81;;;29.81;47.31
8416;BME280;4245;42.120;24.732;2022-08-06T06:30:46;99000.03;;;29.91;47.23
8416;BME280;4245;42.120;24.732;2022-08-06T06:33:24;98998.91;;;30.27;46.51
8416;BME280;4245;42.120;24.732;2022-08-06T06:35:55;99000.66;;;30.44;46.15
8416;BME280;4245;42.120;24.732;2022-08-06T06:38:36;98997.22;;;30.49;46.09
8416;BME280;4245;42.120;24.732;2022-08-06T06:41:10;98988.53;;;30.40;46.18
8416;BME280;4245;42.120;24.732;2022-08-06T06:43:46;98993.38;;;30.61;45.39
8416;BME280;4245;42.120;24.732;2022-08-06T06:46:22;98991.25;;;30.52;45.65
8416;BME280;4245;42.120;24.732;2022-08-06T06:48:54;98984.41;;;30.66;45.62
8416;BME280;4245;42.120;24.732;2022-08-06T06:51:26;98995.13;;;30.96;44.69
8416;BME280;4245;42.120;24.732;2022-08-06T06:53:55;98988.69;;;31.02;44.33
8416;BME280;4245;42.120;24.732;2022-08-06T06:56:25;98977.41;;;31.15;44.19
8416;BME280;4245;42.120;24.732;2022-08-06T06:58:56;98988.13;;;31.33;43.84
8416;BME280;4245;42.120;24.732;2022-08-06T07:01:25;98978.09;;;31.56;42.97
8416;BME280;4245;42.120;24.732;2022-08-06T07:03:59;98984.06;;;31.86;43.19
8416;BME280;4245;42.120;24.732;2022-08-06T07:06:28;98976.81;;;32.13;42.71
8416;BME280;4245;42.120;24.732;2022-08-06T07:08:57;98977.44;;;32.20;42.19
8416;BME280;4245;42.120;24.732;2022-08-06T07:11:25;98977.53;;;32.47;41.72
8416;BME280;4245;42.120;24.732;2022-08-06T07:13:55;98980.03;;;32.70;41.28
8416;BME280;4245;42.120;24.732;2022-08-06T07:16:24;98979.53;;;33.00;40.45
8416;BME280;4245;42.120;24.732;2022-08-06T07:18:53;98982.69;;;33.14;40.08
8416;BME280;4245;42.120;24.732;2022-08-06T07:21:22;98971.63;;;33.41;39.71
8416;BME280;4245;42.120;24.732;2022-08-06T07:23:50;98975.13;;;33.63;39.19
8416;BME280;4245;42.120;24.732;2022-08-06T07:26:20;98977.56;;;33.91;38.69
8416;BME280;4245;42.120;24.732;2022-08-06T07:28:50;98974.31;;;34.04;37.82
8416;BME280;4245;42.120;24.732;2022-08-06T07:31:18;98966.66;;;34.12;37.57
8416;BME280;4245;42.120;24.732;2022-08-06T07:33:48;98977.41;;;34.08;37.69
8416;BME280;4245;42.120;24.732;2022-08-06T07:36:17;98968.25;;;33.97;37.84
8416;BME280;4245;42.120;24.732;2022-08-06T07:38:47;98972.31;;;33.90;37.80
8416;BME280;4245;42.120;24.732;2022-08-06T07:41:15;98970.00;;;33.72;38.13
8416;BME280;4245;42.120;24.732;2022-08-06T07:43:46;98966.53;;;33.91;37.95
8416;BME280;4245;42.120;24.732;2022-08-06T07:46:19;98970.34;;;34.22;37.62
8416;BME280;4245;42.120;24.732;2022-08-06T07:48:52;98966.84;;;34.42;37.37
8416;BME280;4245;42.120;24.732;2022-08-06T07:51:23;98964.75;;;34.69;36.55
8416;BME280;4245;42.120;24.732;2022-08-06T07:53:52;98968.69;;;35.09;35.94
8416;BME280;4245;42.120;24.732;2022-08-06T07:56:20;98960.72;;;35.27;35.07
8416;BME280;4245;42.120;24.732;2022-08-06T07:58:48;98955.47;;;35.51;34.80
8416;BME280;4245;42.120;24.732;2022-08-06T08:01:15;98955.97;;;35.94;34.19
8416;BME280;4245;42.120;24.732;2022-08-06T08:03:43;98963.69;;;36.17;33.98
8416;BME280;4245;42.120;24.732;2022-08-06T08:06:29;98962.13;;;36.60;32.81
8416;BME280;4245;42.120;24.732;2022-08-06T08:09:00;98954.03;;;36.79;32.73
8416;BME280;4245;42.120;24.732;2022-08-06T08:11:28;98960.63;;;36.88;32.41
8416;BME280;4245;42.120;24.732;2022-08-06T08:13:57;98958.88;;;37.02;32.11
8416;BME280;4245;42.120;24.732;2022-08-06T08:16:26;98958.16;;;37.25;31.76
8416;BME280;4245;42.120;24.732;2022-08-06T08:18:53;98956.84;;;37.52;30.85
8416;BME280;4245;42.120;24.732;2022-08-06T08:21:20;98954.44;;;37.74;30.86
8416;BME280;4245;42.120;24.732;2022-08-06T08:23:49;98956.22;;;37.89;30.20
8416;BME280;4245;42.120;24.732;2022-08-06T08:26:19;98961.91;;;38.02;29.70
8416;BME280;4245;42.120;24.732;2022-08-06T08:28:46;98957.16;;;38.08;29.38
8416;BME280;4245;42.120;24.732;2022-08-06T08:31:13;98953.00;;;37.76;29.67
8416;BME280;4245;42.120;24.732;2022-08-06T08:33:40;98952.78;;;38.02;29.38
8416;BME280;4245;42.120;24.732;2022-08-06T08:36:07;98952.53;;;38.22;29.41
8416;BME280;4245;42.120;24.732;2022-08-06T08:38:35;98947.75;;;38.51;28.68
8416;BME280;4245;42.120;24.732;2022-08-06T08:41:04;98946.50;;;38.81;28.61
8416;BME280;4245;42.120;24.732;2022-08-06T08:43:42;98949.84;;;39.02;27.68
8416;BME280;4245;42.120;24.732;2022-08-06T08:46:11;98943.22;;;38.98;27.79
8416;BME280;4245;42.120;24.732;2022-08-06T08:48:40;98937.25;;;38.91;27.63
8416;BME280;4245;42.120;24.732;2022-08-06T08:51:08;98934.88;;;38.98;27.64
8416;BME280;4245;42.120;24.732;2022-08-06T08:53:43;98940.19;;;39.32;26.82
8416;BME280;4245;42.120;24.732;2022-08-06T08:56:11;98939.47;;;39.26;27.17
8416;BME280;4245;42.120;24.732;2022-08-06T08:58:41;98934.81;;;39.40;26.30
8416;BME280;4245;42.120;24.732;2022-08-06T09:01:09;98933.06;;;38.69;26.75
8416;BME280;4245;42.120;24.732;2022-08-06T09:03:38;98923.16;;;38.63;26.84
8416;BME280;4245;42.120;24.732;2022-08-06T09:06:07;98920.63;;;38.67;27.33
8416;BME280;4245;42.120;24.732;2022-08-06T09:08:34;98918.41;;;37.98;27.41
8416;BME280;4245;42.120;24.732;2022-08-06T09:11:03;98926.84;;;38.35;27.41
8416;BME280;4245;42.120;24.732;2022-08-06T09:13:31;98916.19;;;38.66;26.76
8416;BME280;4245;42.120;24.732;2022-08-06T09:16:00;98926.13;;;38.91;27.00
8416;BME280;4245;42.120;24.732;2022-08-06T09:18:28;98919.56;;;39.19;26.26
8416;BME280;4245;42.120;24.732;2022-08-06T09:20:55;98916.06;;;39.27;26.49
8416;BME280;4245;42.120;24.732;2022-08-06T09:23:22;98912.84;;;39.39;26.31
8416;BME280;4245;42.120;24.732;2022-08-06T09:25:50;98916.69;;;39.89;25.77
8416;BME280;4245;42.120;24.732;2022-08-06T09:28:32;98914.94;;;39.47;26.05
8416;BME280;4245;42.120;24.732;2022-08-06T09:31:04;98910.09;;;39.52;25.73
8416;BME280;4245;42.120;24.732;2022-08-06T09:33:33;98902.66;;;39.34;26.02
8416;BME280;4245;42.120;24.732;2022-08-06T09:36:03;98915.47;;;39.49;25.83
8416;BME280;4245;42.120;24.732;2022-08-06T09:38:31;98913.28;;;39.78;25.30
8416;BME280;4245;42.120;24.732;2022-08-06T09:41:09;98906.69;;;40.15;25.26
8416;BME280;4245;42.120;24.732;2022-08-06T09:43:37;98909.47;;;40.29;24.55
8416;BME280;4245;42.120;24.732;2022-08-06T09:46:06;98903.94;;;39.55;25.69
8416;BME280;4245;42.120;24.732;2022-08-06T09:48:34;98899.81;;;40.26;24.90
8416;BME280;4245;42.120;24.732;2022-08-06T09:51:01;98909.50;;;40.78;23.91
8416;BME280;4245;42.120;24.732;2022-08-06T09:53:29;98907.03;;;40.27;24.84
8416;BME280;4245;42.120;24.732;2022-08-06T09:55:56;98899.16;;;40.16;24.89
8416;BME280;4245;42.120;24.732;2022-08-06T09:58:29;98903.53;;;39.30;25.85
8416;BME280;4245;42.120;24.732;2022-08-06T10:00:56;98901.53;;;39.35;25.40
8416;BME280;4245;42.120;24.732;2022-08-06T10:03:25;98902.44;;;39.77;25.38
8416;BME280;4245;42.120;24.732;2022-08-06T10:06:06;98905.47;;;39.94;24.79
8416;BME280;4245;42.120;24.732;2022-08-06T10:08:33;98893.31;;;40.31;24.88
8416;BME280;4245;42.120;24.732;2022-08-06T10:11:00;98891.09;;;40.69;24.28
8416;BME280;4245;42.120;24.732;2022-08-06T10:13:30;98893.16;;;41.21;23.76
8416;BME280;4245;42.120;24.732;2022-08-06T10:15:59;98887.75;;;41.25;23.67
8416;BME280;4245;42.120;24.732;2022-08-06T10:18:37;98885.81;;;41.26;23.70
8416;BME280;4245;42.120;24.732;2022-08-06T10:21:08;98886.59;;;41.17;23.41
8416;BME280;4245;42.120;24.732;2022-08-06T10:23:38;98883.31;;;41.02;23.34
8416;BME280;4245;42.120;24.732;2022-08-06T10:26:06;98879.66;;;41.37;23.40
8416;BME280;4245;42.120;24.732;2022-08-06T10:28:36;98880.56;;;41.77;23.24
8416;BME280;4245;42.120;24.732;2022-08-06T10:31:05;98870.13;;;41.60;22.96
8416;BME280;4245;42.120;24.732;2022-08-06T10:33:39;98866.78;;;41.81;23.08
8416;BME280;4245;42.120;24.732;2022-08-06T10:36:10;98860.81;;;42.04;22.70
8416;BME280;4245;42.120;24.732;2022-08-06T10:38:42;98865.88;;;42.59;22.18
8416;BME280;4245;42.120;24.732;2022-08-06T10:41:12;98870.34;;;42.77;21.86
8416;BME280;4245;42.120;24.732;2022-08-06T10:43:40;98871.66;;;42.88;22.17
8416;BME280;4245;42.120;24.732;2022-08-06T10:46:09;98861.47;;;43.18;21.66
8416;BME280;4245;42.120;24.732;2022-08-06T10:48:38;98857.81;;;42.40;22.00
8416;BME280;4245;42.120;24.732;2022-08-06T10:51:07;98857.41;;;41.77;22.55
8416;BME280;4245;42.120;24.732;2022-08-06T10:53:35;98848.56;;;40.99;23.49
8416;BME280;4245;42.120;24.732;2022-08-06T10:56:05;98849.59;;;40.81;23.95
8416;BME280;4245;42.120;24.732;2022-08-06T10:58:34;98852.28;;;40.59;23.86
8416;BME280;4245;42.120;24.732;2022-08-06T11:01:05;98848.94;;;39.66;24.81
8416;BME280;4245;42.120;24.732;2022-08-06T11:07:03;98849.38;;;41.22;23.42
8416;BME280;4245;42.120;24.732;2022-08-06T11:09:53;98842.56;;;41.28;23.47
8416;BME280;4245;42.120;24.732;2022-08-06T11:12:34;98836.38;;;42.10;22.52
8416;BME280;4245;42.120;24.732;2022-08-06T11:15:06;98838.91;;;42.29;22.36
8416;BME280;4245;42.120;24.732;2022-08-06T11:17:44;98832.34;;;42.59;22.09
8416;BME280;4245;42.120;24.732;2022-08-06T11:20:35;98831.56;;;42.67;21.83
8416;BME280;4245;42.120;24.732;2022-08-06T11:23:03;98831.00;;;43.25;21.56
8416;BME280;4245;42.120;24.732;2022-08-06T11:25:39;98835.09;;;43.37;21.42
8416;BME280;4245;42.120;24.732;2022-08-06T11:28:07;98833.19;;;42.77;22.03
8416;BME280;4245;42.120;24.732;2022-08-06T11:30:40;98825.91;;;41.85;22.98
8416;BME280;4245;42.120;24.732;2022-08-06T11:33:08;98829.81;;;40.91;24.00
8416;BME280;4245;42.120;24.732;2022-08-06T11:35:43;98816.34;;;39.85;24.95
8416;BME280;4245;42.120;24.732;2022-08-06T11:38:12;98823.94;;;40.21;24.69
8416;BME280;4245;42.120;24.732;2022-08-06T11:40:56;98821.56;;;40.14;24.65
8416;BME280;4245;42.120;24.732;2022-08-06T11:43:45;98824.84;;;38.83;25.70
8416;BME280;4245;42.120;24.732;2022-08-06T11:46:20;98822.88;;;38.09;26.92
8416;BME280;4245;42.120;24.732;2022-08-06T11:49:19;98813.66;;;38.13;27.42
8416;BME280;4245;42.120;24.732;2022-08-06T11:51:50;98809.50;;;37.68;27.92
8416;BME280;4245;42.120;24.732;2022-08-06T11:54:19;98818.75;;;37.59;28.25
8416;BME280;4245;42.120;24.732;2022-08-06T11:57:22;98820.47;;;37.78;28.03
8416;BME280;4245;42.120;24.732;2022-08-06T12:00:17;98817.78;;;37.44;28.03
8416;BME280;4245;42.120;24.732;2022-08-06T12:02:58;98803.69;;;37.17;28.03
8416;BME280;4245;42.120;24.732;2022-08-06T12:05:41;98796.34;;;36.97;28.80
8416;BME280;4245;42.120;24.732;2022-08-06T12:08:25;98809.03;;;37.04;28.67
8416;BME280;4245;42.120;24.732;2022-08-06T12:11:26;98801.09;;;37.26;28.21
8416;BME280;4245;42.120;24.732;2022-08-06T12:14:04;98795.88;;;37.72;27.66
8416;BME280;4245;42.120;24.732;2022-08-06T12:16:36;98807.16;;;38.42;26.23
8416;BME280;4245;42.120;24.732;2022-08-06T12:19:10;98794.13;;;38.61;26.71
8416;BME280;4245;42.120;24.732;2022-08-06T12:21:51;98792.28;;;38.89;25.98
8416;BME280;4245;42.120;24.732;2022-08-06T12:24:24;98788.22;;;38.49;26.51
8416;BME280;4245;42.120;24.732;2022-08-06T12:26:53;98787.69;;;38.47;26.65
8416;BME280;4245;42.120;24.732;2022-08-06T12:29:21;98782.28;;;39.20;26.77
8416;BME280;4245;42.120;24.732;2022-08-06T12:31:48;98775.47;;;39.12;26.01
8416;BME280;4245;42.120;24.732;2022-08-06T12:34:23;98780.16;;;38.98;26.01
8416;BME280;4245;42.120;24.732;2022-08-06T12:36:51;98774.28;;;38.30;26.97
8416;BME280;4245;42.120;24.732;2022-08-06T12:39:18;98768.25;;;38.47;26.55
8416;BME280;4245;42.120;24.732;2022-08-06T12:41:47;98769.78;;;38.72;25.95
8416;BME280;4245;42.120;24.732;2022-08-06T12:44:14;98765.72;;;38.64;26.54
8416;BME280;4245;42.120;24.732;2022-08-06T12:46:41;98756.25;;;38.14;26.97
8416;BME280;4245;42.120;24.732;2022-08-06T12:49:09;98757.72;;;38.25;26.77
8416;BME280;4245;42.120;24.732;2022-08-06T12:51:36;98751.75;;;37.99;26.93
8416;BME280;4245;42.120;24.732;2022-08-06T12:54:06;98741.75;;;37.56;27.26
8416;BME280;4245;42.120;24.732;2022-08-06T12:56:37;98738.50;;;36.96;28.22
8416;BME280;4245;42.120;24.732;2022-08-06T12:59:09;98730.69;;;36.74;28.30
8416;BME280;4245;42.120;24.732;2022-08-06T13:01:44;98734.94;;;36.90;28.54
8416;BME280;4245;42.120;24.732;2022-08-06T13:04:13;98740.91;;;37.08;28.06
8416;BME280;4245;42.120;24.732;2022-08-06T13:06:40;98731.88;;;37.44;28.11
8416;BME280;4245;42.120;24.732;2022-08-06T13:09:07;98722.56;;;38.20;26.70
8416;BME280;4245;42.120;24.732;2022-08-06T13:11:35;98726.63;;;39.25;25.62
8416;BME280;4245;42.120;24.732;2022-08-06T13:14:14;98728.75;;;39.28;25.59
8416;BME280;4245;42.120;24.732;2022-08-06T13:16:44;98727.00;;;40.01;24.77
8416;BME280;4245;42.120;24.732;2022-08-06T13:19:12;98727.63;;;40.56;24.78
8416;BME280;4245;42.120;24.732;2022-08-06T13:21:41;98728.72;;;40.91;23.73
8416;BME280;4245;42.120;24.732;2022-08-06T13:24:09;98732.03;;;41.01;23.59
8416;BME280;4245;42.120;24.732;2022-08-06T13:26:48;98720.03;;;41.23;23.47
8416;BME280;4245;42.120;24.732;2022-08-06T13:29:18;98713.94;;;41.60;22.93
8416;BME280;4245;42.120;24.732;2022-08-06T13:31:46;98714.16;;;41.25;23.25